Time;durP1;ratioP1;P1;durP2;ratioP2;P2;SDS_P1;SDS_P2;PMS_P1;PMS_P2;Temp;Humidity;BMP_temperature;BMP_pressure;BME280_temperature;BME280_humidity;BME280_pressure;Samples;Min_cycle;Max_cycle;Signal;HPM_P1;HPM_P2
2023/12/08 00:02:25;;;;;;;5.40;3.60;;;4.40;99.90;;;;;;4988246;28;20444;-73
2023/12/08 00:04:50;;;;;;;5.63;4.60;;;4.50;99.90;;;;;;4991129;28;20205;-74
2023/12/08 00:07:16;;;;;;;5.30;4.13;;;4.50;99.90;;;;;;4989482;28;20966;-72
2023/12/08 00:09:42;;;;;;;5.80;3.97;;;4.50;99.90;;;;;;4988327;28;20184;-73
2023/12/08 00:12:08;;;;;;;5.20;4.20;;;4.50;99.90;;;;;;4989555;28;20186;-73
2023/12/08 00:14:34;;;;;;;5.17;4.03;;;4.50;99.90;;;;;;4988569;28;21193;-73
2023/12/08 00:16:59;;;;;;;5.57;4.23;;;4.50;99.90;;;;;;4989781;28;21059;-73
2023/12/08 00:19:25;;;;;;;5.77;4.17;;;4.50;99.90;;;;;;4988539;28;20720;-73
2023/12/08 00:21:50;;;;;;;5.43;4.40;;;4.50;99.90;;;;;;4990466;28;20190;-73
2023/12/08 00:24:16;;;;;;;5.33;3.90;;;4.60;99.90;;;;;;4989446;28;20191;-74
2023/12/08 00:26:42;;;;;;;3.90;3.40;;;4.60;99.90;;;;;;4989015;28;20583;-75
2023/12/08 00:29:08;;;;;;;7.57;4.60;;;4.60;99.90;;;;;;4990146;28;20191;-74
2023/12/08 00:31:33;;;;;;;5.87;4.50;;;4.60;99.90;;;;;;4987915;28;20191;-75
2023/12/08 00:33:59;;;;;;;7.17;4.30;;;4.60;99.90;;;;;;4990197;28;20711;-72
2023/12/08 00:36:25;;;;;;;8.33;4.60;;;4.60;99.90;;;;;;4988187;28;20186;-73
2023/12/08 00:38:51;;;;;;;5.23;3.90;;;4.60;99.90;;;;;;4990381;28;20188;-72
2023/12/08 00:41:16;;;;;;;6.30;4.70;;;4.60;99.90;;;;;;4988138;28;20430;-74
2023/12/08 00:43:42;;;;;;;6.00;4.20;;;4.60;99.90;;;;;;4989096;28;20187;-73
2023/12/08 00:46:09;;;;;;;4.93;4.10;;;4.60;99.90;;;;;;4989064;28;20321;-73
2023/12/08 00:48:35;;;;;;;6.00;5.10;;;4.60;99.90;;;;;;4988629;28;20232;-73
2023/12/08 00:51:00;;;;;;;7.63;5.80;;;4.60;99.90;;;;;;4988795;28;20430;-73
2023/12/08 00:53:26;;;;;;;5.30;4.30;;;4.60;99.90;;;;;;4988925;28;20562;-73
2023/12/08 00:55:52;;;;;;;6.40;4.73;;;4.60;99.90;;;;;;4990911;28;20667;-73
2023/12/08 00:58:17;;;;;;;5.93;4.90;;;4.60;99.90;;;;;;4992217;28;20184;-73
2023/12/08 01:00:44;;;;;;;6.70;5.33;;;4.60;99.90;;;;;;4992968;28;20239;-73
2023/12/08 01:03:10;;;;;;;9.37;5.17;;;4.60;99.90;;;;;;4992782;28;20183;-73
2023/12/08 01:05:36;;;;;;;8.10;5.90;;;4.60;99.90;;;;;;4993435;28;20449;-72
2023/12/08 01:08:01;;;;;;;7.13;5.50;;;4.50;99.90;;;;;;4996244;28;20530;-74
2023/12/08 01:10:27;;;;;;;6.80;5.03;;;4.60;99.90;;;;;;4994974;28;20183;-72
2023/12/08 01:12:52;;;;;;;7.37;6.00;;;4.60;99.90;;;;;;4995986;28;20608;-74
2023/12/08 01:15:18;;;;;;;8.80;5.97;;;4.60;99.90;;;;;;4995629;28;20198;-72
2023/12/08 01:17:44;;;;;;;7.00;5.30;;;4.50;99.90;;;;;;4996156;28;20277;-73
2023/12/08 01:20:10;;;;;;;9.50;6.37;;;4.50;99.90;;;;;;4995918;28;20191;-73
2023/12/08 01:22:35;;;;;;;7.43;5.43;;;4.50;99.90;;;;;;4995143;28;20183;-74
2023/12/08 01:25:01;;;;;;;7.50;5.33;;;4.40;99.90;;;;;;4995617;28;20458;-73
2023/12/08 01:27:27;;;;;;;6.83;5.03;;;4.40;99.90;;;;;;4996179;28;20586;-74
2023/12/08 01:29:53;;;;;;;6.40;5.30;;;4.50;99.90;;;;;;4995892;28;20479;-75
2023/12/08 01:32:18;;;;;;;10.77;6.87;;;4.50;99.90;;;;;;4995080;28;20202;-74
2023/12/08 01:34:44;;;;;;;7.50;6.13;;;4.50;99.90;;;;;;4996411;28;20186;-74
2023/12/08 01:37:10;;;;;;;9.03;6.30;;;4.50;99.90;;;;;;4995836;28;20728;-74
2023/12/08 01:39:35;;;;;;;7.90;5.77;;;4.40;99.90;;;;;;4990624;28;20195;-73
2023/12/08 01:42:02;;;;;;;9.90;5.93;;;4.50;99.90;;;;;;4991611;28;20186;-74
2023/12/08 01:44:28;;;;;;;9.70;6.07;;;4.50;99.90;;;;;;4996218;28;20441;-74
2023/12/08 01:46:53;;;;;;;6.87;5.90;;;4.50;99.90;;;;;;4995377;28;20435;-73
2023/12/08 01:49:20;;;;;;;8.40;5.67;;;4.50;99.90;;;;;;4995031;28;20187;-73
2023/12/08 01:51:46;;;;;;;6.67;5.70;;;4.50;99.90;;;;;;4996294;28;20528;-75
2023/12/08 01:54:13;;;;;;;7.23;5.70;;;4.60;99.90;;;;;;4994661;28;20475;-75
2023/12/08 01:56:40;;;;;;;7.07;6.00;;;4.50;99.90;;;;;;4996714;28;20927;-74
2023/12/08 01:59:07;;;;;;;9.20;5.70;;;4.50;99.90;;;;;;4992281;28;20933;-73
2023/12/08 02:01:34;;;;;;;9.20;6.40;;;4.50;99.90;;;;;;4993942;28;20428;-73
2023/12/08 02:03:59;;;;;;;7.33;5.67;;;4.50;99.90;;;;;;4995370;28;20437;-73
2023/12/08 02:06:25;;;;;;;8.33;5.87;;;4.60;99.90;;;;;;4993897;28;20439;-74
2023/12/08 02:08:51;;;;;;;8.63;5.83;;;4.60;99.90;;;;;;4991554;28;20183;-74
2023/12/08 02:11:17;;;;;;;7.77;5.83;;;4.60;99.90;;;;;;4994949;28;20187;-73
2023/12/08 02:13:44;;;;;;;8.20;5.80;;;4.60;99.90;;;;;;4997233;28;20461;-75
2023/12/08 02:16:31;;;;;;;7.73;6.13;;;4.60;99.90;;;;;;4995729;28;20430;-74
2023/12/08 02:18:57;;;;;;;7.10;5.53;;;4.70;99.90;;;;;;4995782;28;20483;-74
2023/12/08 02:21:24;;;;;;;6.63;5.70;;;4.70;99.90;;;;;;4996130;28;20521;-74
2023/12/08 02:23:50;;;;;;;7.20;5.40;;;4.70;99.90;;;;;;4995959;28;20424;-75
2023/12/08 02:26:18;;;;;;;8.30;6.00;;;4.70;99.90;;;;;;4995113;28;20431;-74
2023/12/08 02:28:44;;;;;;;9.23;7.03;;;4.60;99.90;;;;;;4996413;28;20430;-73
2023/12/08 02:31:15;;;;;;;7.60;5.40;;;4.70;99.90;;;;;;4995646;28;20426;-72
2023/12/08 02:33:44;;;;;;;9.17;6.57;;;4.70;99.90;;;;;;4996643;28;20979;-74
2023/12/08 02:36:10;;;;;;;7.30;5.83;;;4.70;99.90;;;;;;4995427;28;20507;-74
2023/12/08 02:38:37;;;;;;;8.37;5.87;;;4.70;99.90;;;;;;4994831;28;20439;-74
2023/12/08 02:41:03;;;;;;;8.03;5.67;;;4.70;99.90;;;;;;4994364;28;20184;-75
2023/12/08 02:43:28;;;;;;;7.37;5.90;;;4.70;99.90;;;;;;4994792;28;20430;-73
2023/12/08 02:45:54;;;;;;;8.97;6.40;;;4.80;99.90;;;;;;4995374;28;20192;-73
2023/12/08 02:48:20;;;;;;;7.10;5.63;;;4.80;99.90;;;;;;4995268;28;20191;-73
2023/12/08 02:50:46;;;;;;;7.93;6.03;;;4.80;99.90;;;;;;4994750;28;20244;-73
2023/12/08 02:53:11;;;;;;;10.37;6.30;;;4.80;99.90;;;;;;5009650;28;20223;-74
2023/12/08 02:55:37;;;;;;;7.97;5.90;;;4.80;99.90;;;;;;4996707;28;21023;-74
2023/12/08 02:58:03;;;;;;;7.30;6.20;;;4.80;99.90;;;;;;4996043;28;20192;-73
2023/12/08 03:00:29;;;;;;;7.83;5.70;;;4.80;99.90;;;;;;4996318;28;20994;-75
2023/12/08 03:02:54;;;;;;;7.03;5.50;;;4.80;99.90;;;;;;4995571;28;20673;-76
2023/12/08 03:05:20;;;;;;;7.57;6.60;;;4.80;99.90;;;;;;4995243;28;20641;-73
2023/12/08 03:07:45;;;;;;;9.77;6.40;;;4.80;99.90;;;;;;4995950;28;20175;-74
2023/12/08 03:10:12;;;;;;;8.83;6.30;;;4.80;99.90;;;;;;4995521;28;20183;-73
2023/12/08 03:12:38;;;;;;;7.90;5.93;;;4.80;99.90;;;;;;4993996;28;20219;-75
2023/12/08 03:15:04;;;;;;;9.63;6.57;;;4.80;99.90;;;;;;4990825;28;20434;-74
2023/12/08 03:17:30;;;;;;;7.60;6.20;;;4.80;99.90;;;;;;4996435;28;20206;-74
2023/12/08 03:19:56;;;;;;;7.80;6.30;;;4.70;99.90;;;;;;4994562;28;20956;-74
2023/12/08 03:22:21;;;;;;;8.57;6.40;;;4.70;99.90;;;;;;4980069;28;20183;-73
2023/12/08 03:24:47;;;;;;;7.93;6.10;;;4.70;99.90;;;;;;4994217;28;20188;-75
2023/12/08 03:27:13;;;;;;;8.03;6.20;;;4.70;99.90;;;;;;4994679;28;20708;-75
2023/12/08 03:29:42;;;;;;;9.63;7.17;;;4.60;99.90;;;;;;4996522;28;20195;-73
2023/12/08 03:32:08;;;;;;;9.90;7.00;;;4.60;99.90;;;;;;4994480;28;20199;-74
2023/12/08 03:34:34;;;;;;;11.20;7.83;;;4.60;99.90;;;;;;4997027;28;20469;-73
2023/12/08 03:37:00;;;;;;;8.87;6.97;;;4.60;99.90;;;;;;4995596;28;20193;-73
2023/12/08 03:39:26;;;;;;;10.10;7.03;;;4.60;99.90;;;;;;4996788;28;20423;-75
2023/12/08 03:41:51;;;;;;;9.70;7.53;;;4.50;99.90;;;;;;4994457;28;20310;-72
2023/12/08 03:44:17;;;;;;;9.70;7.63;;;4.50;99.90;;;;;;4993984;28;20838;-73
2023/12/08 03:46:43;;;;;;;10.70;7.33;;;4.50;99.90;;;;;;4997058;28;20191;-75
2023/12/08 03:49:09;;;;;;;10.30;8.10;;;4.50;99.90;;;;;;4993756;28;20632;-73
2023/12/08 03:51:35;;;;;;;10.50;7.27;;;4.50;99.90;;;;;;4996584;28;20455;-73
2023/12/08 03:54:00;;;;;;;10.23;7.40;;;4.50;99.90;;;;;;4995486;28;20473;-74
2023/12/08 03:56:26;;;;;;;9.50;7.57;;;4.40;99.90;;;;;;4996556;28;20645;-74
2023/12/08 03:58:52;;;;;;;9.60;6.77;;;4.40;99.90;;;;;;4995532;28;20215;-74
2023/12/08 04:01:18;;;;;;;10.70;8.20;;;4.40;99.90;;;;;;4992511;28;20210;-73
2023/12/08 04:03:44;;;;;;;12.50;7.50;;;4.30;99.90;;;;;;4997494;28;20184;-72
2023/12/08 04:06:10;;;;;;;9.63;7.40;;;4.30;99.90;;;;;;4994682;28;20429;-75
2023/12/08 04:08:35;;;;;;;11.30;7.40;;;4.20;99.90;;;;;;4992434;28;20183;-74
2023/12/08 04:11:01;;;;;;;10.60;7.77;;;4.20;99.90;;;;;;4990485;28;20621;-74
2023/12/08 04:13:27;;;;;;;9.10;7.20;;;4.30;99.90;;;;;;4989929;28;20216;-74
2023/12/08 04:15:52;;;;;;;9.17;7.43;;;4.20;99.90;;;;;;5003756;28;20624;-73
2023/12/08 04:18:18;;;;;;;10.13;7.67;;;4.20;99.90;;;;;;4994804;28;20189;-73
2023/12/08 04:20:44;;;;;;;9.63;7.23;;;4.30;99.90;;;;;;4990607;28;20188;-73
2023/12/08 04:23:09;;;;;;;9.63;7.30;;;4.20;99.90;;;;;;4992340;28;20183;-73
2023/12/08 04:25:35;;;;;;;9.90;6.80;;;4.20;99.90;;;;;;4996851;28;20179;-75
2023/12/08 04:28:01;;;;;;;11.40;8.20;;;4.20;99.90;;;;;;4993337;28;20703;-74
2023/12/08 04:30:27;;;;;;;11.13;7.93;;;4.20;99.90;;;;;;4989528;28;20191;-73
2023/12/08 04:32:53;;;;;;;8.87;7.43;;;4.20;99.90;;;;;;4994443;28;20525;-73
2023/12/08 04:35:19;;;;;;;8.57;6.53;;;4.30;99.90;;;;;;4994558;28;20195;-73
2023/12/08 04:37:44;;;;;;;10.63;8.07;;;4.30;99.90;;;;;;4995405;28;20187;-74
2023/12/08 04:40:10;;;;;;;11.13;7.30;;;4.30;99.90;;;;;;4996210;28;20251;-75
2023/12/08 04:42:36;;;;;;;12.97;8.10;;;4.30;99.90;;;;;;4991631;28;20335;-75
2023/12/08 04:45:03;;;;;;;10.30;7.57;;;4.30;99.90;;;;;;4996318;28;20431;-73
2023/12/08 04:47:29;;;;;;;11.80;8.23;;;4.30;99.90;;;;;;4998680;28;20794;-75
2023/12/08 04:49:54;;;;;;;11.30;8.23;;;4.30;99.90;;;;;;4999064;28;20431;-74
2023/12/08 04:52:20;;;;;;;12.80;7.83;;;4.30;99.90;;;;;;4998593;28;20905;-74
2023/12/08 04:54:46;;;;;;;10.47;7.73;;;4.30;99.90;;;;;;4998679;28;20187;-74
2023/12/08 04:57:11;;;;;;;10.83;7.07;;;4.30;99.90;;;;;;4998560;28;20916;-76
2023/12/08 04:59:38;;;;;;;12.37;7.07;;;4.30;99.90;;;;;;4999381;28;20599;-73
2023/12/08 05:02:04;;;;;;;12.93;8.47;;;4.30;99.90;;;;;;4998434;28;20188;-74
2023/12/08 05:04:30;;;;;;;11.33;8.10;;;4.30;99.90;;;;;;5000565;28;20502;-74
2023/12/08 05:06:55;;;;;;;9.57;7.67;;;4.30;99.90;;;;;;4997744;28;20840;-73
2023/12/08 05:09:21;;;;;;;9.40;7.77;;;4.30;99.90;;;;;;4992748;28;20631;-75
2023/12/08 05:11:47;;;;;;;11.03;8.03;;;4.30;99.90;;;;;;4994806;28;20201;-74
2023/12/08 05:14:13;;;;;;;11.30;8.10;;;4.30;99.90;;;;;;5001225;28;20234;-76
2023/12/08 05:16:39;;;;;;;10.10;7.10;;;4.30;99.90;;;;;;4998735;28;20193;-74
2023/12/08 05:19:04;;;;;;;10.30;7.13;;;4.30;99.90;;;;;;4998641;28;20510;-74
2023/12/08 05:21:30;;;;;;;11.10;7.87;;;4.40;99.90;;;;;;4999075;28;20186;-73
2023/12/08 05:23:56;;;;;;;10.77;7.60;;;4.40;99.90;;;;;;4984018;28;20191;-74
2023/12/08 05:26:23;;;;;;;10.00;7.77;;;4.40;99.90;;;;;;4993981;28;20556;-73
2023/12/08 05:28:49;;;;;;;11.20;8.30;;;4.40;99.90;;;;;;4994717;28;20188;-72
2023/12/08 05:31:14;;;;;;;15.00;8.10;;;4.50;99.90;;;;;;4995933;28;20499;-75
2023/12/08 05:33:40;;;;;;;10.63;8.07;;;4.50;99.90;;;;;;5000196;28;20477;-75
2023/12/08 05:36:06;;;;;;;13.03;9.70;;;4.50;99.90;;;;;;4996934;28;20600;-73
2023/12/08 05:38:32;;;;;;;12.33;8.10;;;4.50;99.90;;;;;;5000176;28;20187;-74
2023/12/08 05:40:57;;;;;;;10.70;8.13;;;4.50;99.90;;;;;;4992821;28;20446;-75
2023/12/08 05:43:23;;;;;;;12.67;8.33;;;4.50;99.90;;;;;;4993299;28;20244;-73
2023/12/08 05:45:49;;;;;;;11.47;8.47;;;4.50;99.90;;;;;;4992216;28;20236;-73
2023/12/08 05:48:15;;;;;;;11.80;8.80;;;4.50;99.90;;;;;;4986366;28;20199;-75
2023/12/08 05:50:40;;;;;;;10.47;7.83;;;4.50;99.90;;;;;;4989426;28;21032;-74
2023/12/08 05:53:06;;;;;;;13.30;9.10;;;4.50;99.90;;;;;;4989591;28;20210;-74
2023/12/08 05:55:32;;;;;;;8.80;7.77;;;4.40;99.90;;;;;;4989178;28;20187;-73
2023/12/08 05:57:57;;;;;;;10.77;9.57;;;4.40;99.90;;;;;;4988816;28;20187;-74
2023/12/08 06:00:23;;;;;;;13.00;8.40;;;4.40;99.90;;;;;;4990625;28;20205;-73
2023/12/08 06:02:48;;;;;;;10.90;8.50;;;4.40;99.90;;;;;;4992825;28;20215;-75
2023/12/08 06:05:15;;;;;;;11.83;8.47;;;4.40;99.90;;;;;;4997471;28;20194;-73
2023/12/08 06:07:41;;;;;;;12.63;9.53;;;4.40;99.90;;;;;;5000125;28;20181;-74
2023/12/08 06:10:07;;;;;;;11.70;8.50;;;4.40;99.90;;;;;;4997579;28;20424;-72
2023/12/08 06:12:34;;;;;;;13.60;9.63;;;4.40;99.90;;;;;;4997457;28;20868;-76
2023/12/08 06:15:00;;;;;;;11.60;9.10;;;4.40;99.90;;;;;;4988271;28;20446;-74
2023/12/08 06:17:29;;;;;;;15.53;10.03;;;4.30;99.90;;;;;;4996114;28;20431;-74
2023/12/08 06:19:55;;;;;;;11.50;8.50;;;4.40;99.90;;;;;;4996704;28;20429;-74
2023/12/08 06:22:21;;;;;;;12.30;8.77;;;4.40;99.90;;;;;;4997189;28;20484;-73
2023/12/08 06:24:47;;;;;;;9.90;8.27;;;4.40;99.90;;;;;;4997338;28;20427;-73
2023/12/08 06:27:12;;;;;;;11.50;9.10;;;4.40;99.90;;;;;;4997088;28;20219;-73
2023/12/08 06:29:38;;;;;;;13.23;9.60;;;4.40;99.90;;;;;;4999854;28;20187;-74
2023/12/08 06:32:05;;;;;;;11.27;8.97;;;4.30;99.90;;;;;;4959955;28;1098048;-74
2023/12/08 06:34:30;;;;;;;14.37;9.13;;;4.40;99.90;;;;;;5000519;28;20228;-73
2023/12/08 06:36:56;;;;;;;12.30;9.10;;;4.40;99.90;;;;;;4997561;28;20446;-74
2023/12/08 06:39:22;;;;;;;12.90;9.27;;;4.40;99.90;;;;;;4993735;28;20252;-75
2023/12/08 06:41:48;;;;;;;14.30;9.70;;;4.40;99.90;;;;;;4996906;28;20252;-75
2023/12/08 06:44:13;;;;;;;12.90;9.63;;;4.40;99.90;;;;;;4992293;28;20192;-75
2023/12/08 06:46:39;;;;;;;13.67;10.80;;;4.50;99.90;;;;;;4987335;28;20944;-74
2023/12/08 06:49:05;;;;;;;14.50;9.77;;;4.50;99.90;;;;;;4990005;28;20183;-75
2023/12/08 06:51:34;;;;;;;13.50;9.43;;;4.50;99.90;;;;;;4989906;28;20900;-76
2023/12/08 06:53:59;;;;;;;12.33;9.03;;;4.40;99.90;;;;;;4990647;28;20219;-73
2023/12/08 06:56:25;;;;;;;13.87;9.50;;;4.50;99.90;;;;;;4992472;28;20424;-73
2023/12/08 06:58:51;;;;;;;13.00;9.50;;;4.40;99.90;;;;;;4991863;28;20211;-74
2023/12/08 07:01:17;;;;;;;12.70;10.10;;;4.40;99.90;;;;;;4991197;28;20184;-74
2023/12/08 07:03:42;;;;;;;14.63;10.80;;;4.40;99.90;;;;;;4987487;28;20435;-75
2023/12/08 07:06:08;;;;;;;13.50;10.83;;;4.40;99.90;;;;;;4989732;28;20188;-74
2023/12/08 07:08:34;;;;;;;12.63;9.63;;;4.40;99.90;;;;;;4990167;28;20754;-74
2023/12/08 07:10:59;;;;;;;12.37;9.70;;;4.40;99.90;;;;;;4986381;28;20214;-71
2023/12/08 07:13:25;;;;;;;14.87;10.53;;;4.40;99.90;;;;;;4988705;28;20303;-72
2023/12/08 07:15:51;;;;;;;14.40;10.47;;;4.40;99.90;;;;;;4988537;28;20665;-72
2023/12/08 07:18:17;;;;;;;13.57;9.87;;;4.40;99.90;;;;;;4989540;28;20668;-72
2023/12/08 07:20:42;;;;;;;13.93;10.70;;;4.40;99.90;;;;;;4990171;28;20435;-72
2023/12/08 07:23:08;;;;;;;13.43;9.73;;;4.40;99.90;;;;;;4987383;28;20274;-72
2023/12/08 07:25:34;;;;;;;12.70;9.90;;;4.50;99.90;;;;;;4989938;28;20241;-72
2023/12/08 07:27:59;;;;;;;13.93;10.03;;;4.50;99.90;;;;;;4989612;28;20183;-73
2023/12/08 07:30:25;;;;;;;14.10;10.40;;;4.60;99.90;;;;;;4978573;28;20187;-73
2023/12/08 07:32:51;;;;;;;14.87;10.20;;;4.50;99.90;;;;;;4989423;28;20219;-73
2023/12/08 07:35:17;;;;;;;12.23;9.63;;;4.50;99.90;;;;;;4991389;28;20200;-72
2023/12/08 07:37:42;;;;;;;14.67;10.30;;;4.50;99.90;;;;;;4991924;28;20435;-72
2023/12/08 07:40:09;;;;;;;14.43;11.03;;;4.50;99.90;;;;;;4989631;28;20492;-72
2023/12/08 07:42:36;;;;;;;16.00;11.10;;;4.50;99.90;;;;;;4992263;28;21112;-72
2023/12/08 07:45:04;;;;;;;13.83;10.70;;;4.50;99.90;;;;;;4990973;28;20430;-72
2023/12/08 07:47:30;;;;;;;14.13;10.70;;;4.50;99.90;;;;;;4991261;28;20434;-72
2023/12/08 07:49:56;;;;;;;16.03;11.33;;;4.50;99.90;;;;;;4991745;28;20587;-72
2023/12/08 07:52:21;;;;;;;14.63;10.00;;;4.50;99.90;;;;;;4991628;28;20194;-72
2023/12/08 07:54:47;;;;;;;14.50;10.30;;;4.60;99.90;;;;;;4944803;28;20313;-72
2023/12/08 07:57:13;;;;;;;14.37;10.80;;;4.60;99.90;;;;;;4991029;28;20206;-72
2023/12/08 07:59:38;;;;;;;17.10;10.80;;;4.60;99.90;;;;;;4990015;28;21967;-73
2023/12/08 08:02:04;;;;;;;16.50;11.00;;;4.60;99.90;;;;;;4990788;28;20580;-73
2023/12/08 08:04:30;;;;;;;16.87;11.23;;;4.60;99.90;;;;;;4990468;28;20195;-72
2023/12/08 08:06:56;;;;;;;14.30;10.70;;;4.50;99.90;;;;;;4990926;28;20492;-72
2023/12/08 08:09:22;;;;;;;14.73;10.90;;;4.60;99.90;;;;;;4992285;28;20869;-72
2023/12/08 08:11:48;;;;;;;14.20;10.97;;;4.50;99.90;;;;;;4991205;28;20184;-72
2023/12/08 08:14:14;;;;;;;13.67;10.93;;;4.60;99.90;;;;;;4991913;28;20522;-72
2023/12/08 08:16:39;;;;;;;17.73;11.70;;;4.60;99.90;;;;;;4990834;28;20681;-72
2023/12/08 08:19:05;;;;;;;15.03;12.03;;;4.60;99.90;;;;;;4992903;28;20184;-72
2023/12/08 08:21:31;;;;;;;17.53;11.07;;;4.60;99.90;;;;;;4990074;28;20484;-72
2023/12/08 08:23:56;;;;;;;16.50;12.13;;;4.60;99.90;;;;;;4991718;28;20271;-72
2023/12/08 08:26:24;;;;;;;14.37;11.23;;;4.60;99.90;;;;;;4992951;28;20222;-72
2023/12/08 08:28:49;;;;;;;15.10;11.20;;;4.60;99.90;;;;;;4991074;28;20198;-72
2023/12/08 08:31:18;;;;;;;18.37;11.20;;;4.60;99.90;;;;;;4992752;28;20435;-72
2023/12/08 08:33:44;;;;;;;17.70;13.70;;;4.60;99.90;;;;;;4991244;28;20684;-72
2023/12/08 08:36:11;;;;;;;14.10;11.13;;;4.70;99.90;;;;;;4991882;28;20425;-72
2023/12/08 08:38:37;;;;;;;14.37;11.33;;;4.70;99.90;;;;;;4991391;28;20443;-72
2023/12/08 08:41:03;;;;;;;16.33;12.00;;;4.70;99.90;;;;;;4992310;28;20431;-72
2023/12/08 08:43:29;;;;;;;15.17;11.00;;;4.70;99.90;;;;;;4991337;28;20423;-72
2023/12/08 08:45:55;;;;;;;14.00;10.60;;;4.70;99.90;;;;;;4991885;28;20434;-72
2023/12/08 08:48:21;;;;;;;14.03;11.87;;;4.70;99.90;;;;;;4990891;28;20777;-72
2023/12/08 08:50:48;;;;;;;15.67;12.10;;;4.80;99.90;;;;;;4990404;28;20788;-72
2023/12/08 08:53:17;;;;;;;17.07;11.70;;;4.80;99.90;;;;;;4992548;28;20569;-72
2023/12/08 08:55:43;;;;;;;16.17;11.60;;;4.80;99.90;;;;;;4990822;28;20541;-72
2023/12/08 08:58:09;;;;;;;18.17;12.13;;;4.90;99.90;;;;;;4991810;28;21055;-72
2023/12/08 09:00:35;;;;;;;16.17;11.37;;;4.90;99.90;;;;;;4976531;28;20441;-72
2023/12/08 09:03:01;;;;;;;15.30;11.20;;;4.90;99.90;;;;;;4989537;28;20609;-72
2023/12/08 09:05:27;;;;;;;16.97;11.93;;;4.90;99.90;;;;;;4992421;28;20292;-72
2023/12/08 09:07:54;;;;;;;18.40;12.40;;;4.90;99.90;;;;;;4992245;28;20509;-73
2023/12/08 09:10:20;;;;;;;17.80;13.10;;;4.90;99.90;;;;;;4991109;28;20461;-72
2023/12/08 09:12:46;;;;;;;17.30;12.80;;;4.90;99.90;;;;;;4983460;28;20918;-72
2023/12/08 09:15:13;;;;;;;17.57;12.43;;;4.90;99.90;;;;;;4984866;28;20452;-72
2023/12/08 09:17:40;;;;;;;18.03;13.03;;;4.90;99.90;;;;;;4990817;28;20435;-72
2023/12/08 09:20:08;;;;;;;16.47;12.40;;;4.90;99.90;;;;;;4991325;28;20437;-73
2023/12/08 09:22:35;;;;;;;18.90;12.93;;;4.90;99.90;;;;;;4993269;28;20437;-72
2023/12/08 09:25:02;;;;;;;16.77;11.43;;;5.00;99.90;;;;;;4991580;28;20442;-72
2023/12/08 09:27:28;;;;;;;16.17;12.07;;;5.00;99.90;;;;;;4997816;28;20988;-72
2023/12/08 09:29:53;;;;;;;20.07;13.20;;;5.00;99.90;;;;;;4994615;28;20426;-72
2023/12/08 09:32:19;;;;;;;17.53;12.57;;;5.00;99.90;;;;;;4995289;28;20337;-73
2023/12/08 09:34:45;;;;;;;16.80;12.63;;;5.00;99.90;;;;;;4993525;28;20226;-72
2023/12/08 09:37:10;;;;;;;16.67;12.50;;;5.00;99.90;;;;;;4993798;28;21085;-72
2023/12/08 09:39:36;;;;;;;16.47;11.80;;;5.00;99.90;;;;;;4995082;28;20725;-72
2023/12/08 09:42:08;;;;;;;17.33;13.07;;;5.00;99.90;;;;;;4993077;28;20203;-73
2023/12/08 09:44:34;;;;;;;16.57;11.93;;;5.00;99.90;;;;;;4994570;28;20187;-72
2023/12/08 09:47:04;;;;;;;17.07;12.83;;;5.00;99.90;;;;;;4994707;28;20441;-72
2023/12/08 09:49:57;;;;;;;18.50;13.40;;;5.00;99.90;;;;;;4982005;28;20449;-72
2023/12/08 09:52:23;;;;;;;18.70;12.73;;;5.00;99.90;;;;;;4996829;28;20525;-73
2023/12/08 09:54:49;;;;;;;17.30;12.50;;;5.00;99.90;;;;;;4993888;28;20509;-72
2023/12/08 09:57:16;;;;;;;16.10;12.70;;;5.10;99.90;;;;;;4997030;28;20742;-72
2023/12/08 09:59:42;;;;;;;15.80;11.80;;;5.10;99.90;;;;;;4994644;28;20195;-73
2023/12/08 10:02:08;;;;;;;17.30;12.80;;;5.10;99.90;;;;;;4998253;28;20955;-72
2023/12/08 10:04:35;;;;;;;21.70;13.93;;;5.10;99.90;;;;;;4995885;28;20434;-73
2023/12/08 10:07:04;;;;;;;17.10;13.23;;;5.10;99.90;;;;;;4994027;28;20744;-73
2023/12/08 10:09:31;;;;;;;21.17;14.90;;;5.10;99.90;;;;;;4993876;28;20454;-72
2023/12/08 10:11:56;;;;;;;19.13;13.57;;;5.10;99.90;;;;;;4979363;28;20433;-72
2023/12/08 10:14:25;;;;;;;19.50;12.53;;;5.10;99.90;;;;;;4992410;28;20475;-72
2023/12/08 10:16:51;;;;;;;19.40;14.07;;;5.10;99.90;;;;;;4990787;28;20199;-72
2023/12/08 10:19:20;;;;;;;17.73;12.40;;;5.10;99.90;;;;;;4996863;28;20431;-73
2023/12/08 10:21:59;;;;;;;18.50;12.60;;;5.10;99.90;;;;;;4995157;28;20427;-72
2023/12/08 10:24:33;;;;;;;17.53;13.10;;;5.10;99.90;;;;;;4996221;28;20437;-72
2023/12/08 10:26:59;;;;;;;16.60;11.57;;;5.10;99.90;;;;;;4994597;28;20470;-72
2023/12/08 10:29:33;;;;;;;16.30;11.97;;;5.10;99.90;;;;;;4995103;28;20431;-72
2023/12/08 10:32:00;;;;;;;14.97;11.90;;;5.20;99.90;;;;;;4997526;28;20442;-72
2023/12/08 10:34:27;;;;;;;18.23;12.37;;;5.20;99.90;;;;;;4998193;28;20797;-73
2023/12/08 10:36:53;;;;;;;14.20;11.77;;;5.20;99.90;;;;;;4994212;28;20438;-72
2023/12/08 10:39:19;;;;;;;15.27;11.03;;;5.20;99.90;;;;;;4997364;28;20434;-73
2023/12/08 10:41:52;;;;;;;14.60;10.90;;;5.20;99.90;;;;;;4996703;28;20525;-72
2023/12/08 10:44:21;;;;;;;15.97;12.00;;;5.30;99.90;;;;;;4997539;28;20438;-73
2023/12/08 10:46:48;;;;;;;14.20;10.63;;;5.20;99.90;;;;;;4995094;28;20426;-72
2023/12/08 10:49:19;;;;;;;13.37;11.20;;;5.30;99.90;;;;;;4994618;28;20430;-72
2023/12/08 10:51:49;;;;;;;15.17;10.87;;;5.30;99.90;;;;;;4995278;28;20434;-72
2023/12/08 10:54:16;;;;;;;14.70;10.63;;;5.30;99.90;;;;;;4978017;28;20466;-72
2023/12/08 10:56:46;;;;;;;16.23;11.30;;;5.30;99.90;;;;;;4996252;28;20426;-72
2023/12/08 10:59:18;;;;;;;16.53;10.10;;;5.30;99.90;;;;;;4993458;28;20803;-72
2023/12/08 11:01:44;;;;;;;15.63;10.53;;;5.30;99.90;;;;;;4996600;28;20422;-73
2023/12/08 11:04:16;;;;;;;13.40;10.23;;;5.30;99.90;;;;;;4996100;28;20434;-72
2023/12/08 11:07:04;;;;;;;16.43;10.90;;;5.40;99.90;;;;;;4996920;28;20990;-72
2023/12/08 11:09:34;;;;;;;11.23;9.53;;;5.40;99.90;;;;;;4996976;28;20455;-72
2023/12/08 11:12:03;;;;;;;13.03;9.50;;;5.40;99.90;;;;;;4994803;28;20469;-72
2023/12/08 11:14:41;;;;;;;15.03;10.00;;;5.40;99.90;;;;;;4992768;28;20478;-72
2023/12/08 11:17:41;;;;;;;14.30;8.77;;;5.50;99.90;;;;;;4994156;28;20482;-72
2023/12/08 11:20:09;;;;;;;10.97;8.63;;;5.50;99.90;;;;;;4997879;28;20546;-72
2023/12/08 11:22:35;;;;;;;13.10;9.57;;;5.50;99.90;;;;;;4995521;28;20431;-72
2023/12/08 11:25:08;;;;;;;12.70;10.07;;;5.50;99.90;;;;;;4991596;28;20431;-72
2023/12/08 11:27:49;;;;;;;9.77;7.77;;;5.60;99.90;;;;;;4996299;28;20183;-72
2023/12/08 11:30:47;;;;;;;11.27;8.53;;;5.60;99.90;;;;;;4959308;28;20446;-72
2023/12/08 11:33:40;;;;;;;11.80;9.17;;;5.60;99.90;;;;;;4995257;28;21144;-73
2023/12/08 11:36:10;;;;;;;11.40;8.63;;;5.60;99.90;;;;;;4995549;28;20815;-73
2023/12/08 11:38:38;;;;;;;11.60;8.63;;;5.60;99.90;;;;;;4997186;28;20442;-73
2023/12/08 11:41:12;;;;;;;13.20;8.17;;;5.60;99.90;;;;;;4994821;28;20438;-73
2023/12/08 11:43:39;;;;;;;11.00;8.87;;;5.70;99.90;;;;;;4997986;28;20504;-73
2023/12/08 11:46:05;;;;;;;16.40;9.30;;;5.70;99.90;;;;;;4994190;28;20908;-73
2023/12/08 11:48:31;;;;;;;10.53;8.73;;;5.70;99.90;;;;;;4996609;28;20553;-71
2023/12/08 11:51:03;;;;;;;10.93;9.20;;;5.70;99.90;;;;;;4996000;28;20432;-73
2023/12/08 11:53:46;;;;;;;10.70;8.33;;;5.70;99.90;;;;;;4996946;28;20471;-73
2023/12/08 11:56:38;;;;;;;15.57;10.03;;;5.70;99.90;;;;;;4994937;28;20790;-73
2023/12/08 11:59:04;;;;;;;12.33;9.43;;;5.80;99.90;;;;;;4982570;28;20434;-73
2023/12/08 12:01:30;;;;;;;11.83;9.40;;;5.80;99.90;;;;;;4997635;28;20424;-73
2023/12/08 12:03:56;;;;;;;13.20;9.33;;;5.80;99.90;;;;;;4996063;28;20426;-72
2023/12/08 12:06:23;;;;;;;14.10;9.37;;;5.80;99.90;;;;;;4996876;28;20431;-73
2023/12/08 12:08:50;;;;;;;13.30;9.93;;;5.80;99.90;;;;;;4994831;28;20942;-72
2023/12/08 12:11:21;;;;;;;14.20;11.00;;;5.90;99.90;;;;;;4995609;28;20434;-72
2023/12/08 12:13:46;;;;;;;13.20;10.40;;;5.90;99.90;;;;;;4995367;28;20462;-72
2023/12/08 12:16:12;;;;;;;14.97;9.37;;;5.90;99.90;;;;;;4995190;28;20439;-73
2023/12/08 12:18:38;;;;;;;14.43;10.47;;;5.90;99.90;;;;;;4996228;28;20562;-72
2023/12/08 12:21:07;;;;;;;14.63;10.20;;;5.90;99.90;;;;;;4995527;28;20189;-72
2023/12/08 12:23:33;;;;;;;13.10;10.03;;;5.90;99.90;;;;;;4997197;28;20875;-73
2023/12/08 12:25:59;;;;;;;14.00;10.40;;;6.00;99.90;;;;;;4995767;28;20427;-72
2023/12/08 12:28:24;;;;;;;17.00;10.90;;;6.00;99.90;;;;;;4996564;28;20179;-72
2023/12/08 12:30:50;;;;;;;16.40;10.53;;;6.00;99.90;;;;;;4995903;28;20187;-72
2023/12/08 12:33:16;;;;;;;16.23;10.33;;;6.00;99.90;;;;;;4995384;28;20314;-73
2023/12/08 12:35:42;;;;;;;15.70;10.13;;;6.00;99.90;;;;;;4997793;28;20188;-73
2023/12/08 12:38:07;;;;;;;14.33;10.47;;;6.00;99.90;;;;;;4996480;28;20211;-73
2023/12/08 12:40:33;;;;;;;17.83;11.13;;;6.00;99.90;;;;;;4998463;28;20422;-72
2023/12/08 12:42:58;;;;;;;12.90;10.17;;;6.10;99.90;;;;;;4995295;28;20272;-73
2023/12/08 12:45:27;;;;;;;15.17;10.17;;;6.10;99.90;;;;;;4997994;28;20266;-73